Time;durP1;ratioP1;P1;durP2;ratioP2;P2;SDS_P1;SDS_P2;PMS_P1;PMS_P2;Temp;Humidity;BMP_temperature;BMP_pressure;BME280_temperature;BME280_humidity;BME280_pressure;Samples;Min_cycle;Max_cycle;Signal;HPM_P1;HPM_P2
2021/03/11 00:08:55;;;;;;;56.28;27.73;;;;;;;-3.70;55.90;100805.30;1744239;76;27007;-58
2021/03/11 00:11:22;;;;;;;65.15;29.90;;;;;;;-3.72;56.05;100809.18;1760405;80;26342;-57
2021/03/11 00:13:49;;;;;;;56.42;27.77;;;;;;;-3.76;56.18;100816.19;1754355;81;25663;-57
2021/03/11 00:16:16;;;;;;;61.70;28.55;;;;;;;-3.79;56.31;100807.33;1769101;80;25218;-58
2021/03/11 00:18:44;;;;;;;62.00;29.87;;;;;;;-3.81;56.30;100804.59;1787299;80;25506;-58
2021/03/11 00:21:11;;;;;;;64.45;29.60;;;;;;;-3.83;56.29;100800.83;1787221;80;25710;-59
2021/03/11 00:23:41;;;;;;;58.85;26.93;;;;;;;-3.86;56.51;100797.78;1753970;81;26274;-58
2021/03/11 00:26:11;;;;;;;49.53;26.15;;;;;;;-3.89;56.38;100783.63;1787156;80;25534;-58
2021/03/11 00:28:38;;;;;;;56.48;26.45;;;;;;;-3.90;56.71;100784.12;1734906;81;25940;-59
2021/03/11 00:31:05;;;;;;;60.70;28.40;;;;;;;-3.94;57.14;100776.30;1738440;82;25558;-58
2021/03/11 00:33:32;;;;;;;59.77;25.50;;;;;;;-3.95;56.71;100772.85;1750801;82;25683;-58
2021/03/11 00:35:59;;;;;;;60.28;28.85;;;;;;;-3.96;56.72;100761.16;1750713;81;25442;-57
2021/03/11 00:38:28;;;;;;;56.20;29.37;;;;;;;-3.99;56.79;100759.72;1730736;82;25482;-57
2021/03/11 00:40:56;;;;;;;54.45;28.07;;;;;;;-4.01;56.85;100747.22;1759257;81;25269;-58
2021/03/11 00:43:31;;;;;;;60.73;28.55;;;;;;;-4.02;56.81;100749.57;1760237;81;25313;-57
2021/03/11 00:45:59;;;;;;;56.68;27.35;;;;;;;-4.02;56.81;100743.45;1750772;82;25687;-59
2021/03/11 00:48:30;;;;;;;55.75;26.62;;;;;;;-4.02;57.03;100741.64;1750878;82;25390;-57
2021/03/11 00:50:57;;;;;;;51.25;24.50;;;;;;;-4.03;57.08;100733.91;1750948;81;25300;-58
2021/03/11 00:53:25;;;;;;;55.08;27.25;;;;;;;-4.03;57.13;100738.69;1750878;82;25478;-60
2021/03/11 00:55:53;;;;;;;62.95;27.77;;;;;;;-4.05;57.00;100741.20;1750961;81;25438;-60
2021/03/11 06:02:45;;;;;;;59.65;26.60;;;;;;;-4.78;61.88;100526.21;1750652;81;27659;-65
2021/03/11 06:05:20;;;;;;;60.45;28.07;;;;;;;-4.70;61.89;100515.95;1753323;81;25506;-65
2021/03/11 06:07:49;;;;;;;62.85;27.80;;;;;;;-4.63;61.85;100508.86;1740124;81;25481;-64
2021/03/11 06:10:18;;;;;;;53.60;27.27;;;;;;;-4.54;61.86;100503.67;1744487;81;25496;-65
2021/03/11 06:12:46;;;;;;;69.30;28.87;;;;;;;-4.42;61.92;100496.47;1759021;81;25101;-65
2021/03/11 06:15:33;;;;;;;67.72;31.35;;;;;;;-4.33;61.75;100493.90;1758902;81;26551;-65
2021/03/11 06:18:05;;;;;;;64.97;29.10;;;;;;;-4.23;61.64;100483.72;1756378;81;25404;-65
2021/03/11 06:20:33;;;;;;;72.85;30.80;;;;;;;-4.11;61.50;100479.94;1758800;81;25344;-65
2021/03/11 06:23:03;;;;;;;57.58;29.23;;;;;;;-3.93;61.73;100487.22;1758695;81;25268;-65
2021/03/11 06:25:30;;;;;;;65.15;30.48;;;;;;;-3.82;61.41;100477.81;1758840;81;25341;-64
2021/03/11 06:27:57;;;;;;;81.97;33.30;;;;;;;-3.69;61.23;100479.61;1758828;80;25768;-64
2021/03/11 06:30:35;;;;;;;72.75;32.23;;;;;;;-3.61;61.02;100481.99;1757783;81;25526;-64
2021/03/11 06:33:04;;;;;;;68.02;31.07;;;;;;;-3.52;61.06;100471.98;1759165;79;25600;-64
2021/03/11 06:35:32;;;;;;;63.42;31.20;;;;;;;-3.34;61.04;100474.73;1716773;82;25548;-65
2021/03/11 06:37:59;;;;;;;74.30;33.25;;;;;;;-3.19;60.78;100471.28;1747123;80;25581;-65
2021/03/11 06:40:29;;;;;;;71.62;33.95;;;;;;;-3.02;60.70;100465.48;1743793;80;25766;-63
2021/03/11 06:43:13;;;;;;;67.12;32.13;;;;;;;-2.88;60.36;100457.75;1745824;81;25444;-66
2021/03/11 06:45:41;;;;;;;65.30;30.32;;;;;;;-2.79;60.13;100458.30;1714134;83;25530;-64
2021/03/11 06:48:25;;;;;;;59.80;29.42;;;;;;;-2.67;60.02;100456.55;1746883;81;25529;-63
2021/03/11 06:50:55;;;;;;;58.80;29.12;;;;;;;-2.50;60.42;100452.84;1715725;83;25566;-64
2021/03/11 06:53:22;;;;;;;66.05;30.00;;;;;;;-2.32;59.94;100440.63;1747040;81;25698;-64
2021/03/11 06:55:49;;;;;;;70.70;32.73;;;;;;;-2.13;59.73;100446.25;1715806;83;25562;-64
2021/03/11 06:58:19;;;;;;;60.92;31.10;;;;;;;-2.04;59.43;100435.33;1746842;81;25578;-64
2021/03/11 07:00:48;;;;;;;70.97;32.95;;;;;;;-1.90;59.48;100428.85;1746464;81;25641;-65
2021/03/11 07:03:15;;;;;;;67.75;33.58;;;;;;;-1.69;59.49;100428.88;1744141;82;25619;-64
2021/03/11 07:05:44;;;;;;;64.92;30.75;;;;;;;-1.49;59.14;100434.45;1692613;84;27090;-64
2021/03/11 07:08:17;;;;;;;61.92;31.93;;;;;;;-1.30;58.81;100427.23;1727766;82;25281;-64
2021/03/11 07:10:48;;;;;;;64.25;31.48;;;;;;;-1.09;58.64;100418.75;1677596;83;25351;-63
2021/03/11 07:13:14;;;;;;;64.65;34.67;;;;;;;-0.95;58.20;100412.70;1673400;85;25606;-63
2021/03/11 07:15:41;;;;;;;62.90;30.00;;;;;;;-0.76;57.47;100400.93;1696077;83;25456;-64
2021/03/11 07:18:21;;;;;;;62.20;30.60;;;;;;;-0.62;57.46;100405.48;1712510;83;26245;-64
2021/03/11 07:20:47;;;;;;;;;;;;;;;-0.43;57.15;100392.07;1709946;84;25845;-63
2021/03/11 07:23:15;;;;;;;65.40;30.82;;;;;;;-0.27;56.44;100397.20;1707439;84;25558;-63
2021/03/11 07:25:47;;;;;;;62.98;28.10;;;;;;;-0.19;56.28;100396.81;1746152;82;25531;-65
2021/03/11 07:28:29;;;;;;;51.90;26.68;;;;;;;-0.04;55.14;100403.77;1746249;82;25455;-64
2021/03/11 07:31:01;;;;;;;50.63;24.12;;;;;;;0.11;55.14;100391.83;1698348;83;25709;-65
2021/03/11 07:33:31;;;;;;;45.12;23.73;;;;;;;0.42;55.04;100407.03;1708423;83;25525;-65
2021/03/11 07:36:01;;;;;;;38.98;21.00;;;;;;;0.63;54.94;100399.70;1706361;84;25575;-65
2021/03/11 07:38:31;;;;;;;39.98;21.37;;;;;;;0.86;54.57;100397.41;1706160;84;25276;-64
2021/03/11 07:41:06;;;;;;;38.65;19.73;;;;;;;1.08;54.00;100388.70;1706179;84;25511;-65
2021/03/11 07:43:33;;;;;;;34.20;19.82;;;;;;;1.29;53.83;100393.29;1706249;84;25728;-63
2021/03/11 07:46:02;;;;;;;33.85;19.57;;;;;;;1.53;53.21;100390.92;1706350;81;25683;-64
2021/03/11 07:48:30;;;;;;;31.80;18.50;;;;;;;1.87;53.23;100384.95;1706372;84;25574;-63
2021/03/11 07:50:57;;;;;;;30.23;18.07;;;;;;;2.27;51.18;100373.14;1706324;82;25687;-61
2021/03/11 07:53:28;;;;;;;30.15;18.00;;;;;;;2.48;49.95;100363.99;1723848;80;26142;-62
2021/03/11 07:55:56;;;;;;;25.65;16.50;;;;;;;2.65;48.28;100366.55;1766939;81;26628;-63
2021/03/11 07:58:24;;;;;;;24.77;15.98;;;;;;;2.87;48.50;100363.25;1769704;80;25609;-61
2021/03/11 08:00:53;;;;;;;27.77;16.73;;;;;;;2.98;47.34;100353.45;1769918;80;25567;-62
2021/03/11 08:03:25;;;;;;;24.07;15.90;;;;;;;3.01;47.21;100360.94;1749798;82;25753;-63
2021/03/11 08:05:52;;;;;;;24.90;15.78;;;;;;;3.01;44.89;100372.17;1725600;81;25478;-62
2021/03/11 08:08:26;;;;;;;23.52;16.10;;;;;;;3.02;46.36;100337.17;1684476;84;25971;-63
2021/03/11 08:10:57;;;;;;;23.50;15.85;;;;;;;3.05;45.90;100332.66;1675541;85;25633;-60
2021/03/11 08:13:40;;;;;;;25.62;15.95;;;;;;;3.05;45.73;100328.65;1674603;85;25598;-61
2021/03/11 08:16:17;;;;;;;29.07;14.98;;;;;;;3.10;45.33;100324.67;1674668;85;25428;-63
2021/03/11 08:18:48;;;;;;;25.60;15.45;;;;;;;3.04;44.94;100321.68;1674624;85;25550;-63
2021/03/11 08:21:36;;;;;;;26.73;16.60;;;;;;;2.91;45.54;100319.45;1674575;85;25722;-64
2021/03/11 08:24:25;;;;;;;23.70;15.45;;;;;;;2.69;44.93;100324.39;1674735;85;25616;-63
2021/03/11 08:26:51;;;;;;;26.10;16.15;;;;;;;2.45;44.03;100321.77;1674680;85;25637;-61
2021/03/11 08:29:23;;;;;;;24.30;15.15;;;;;;;2.28;44.79;100325.34;1674653;85;25589;-64
2021/03/11 08:31:50;;;;;;;23.75;15.43;;;;;;;2.13;45.02;100330.55;1671556;85;25526;-63
2021/03/11 08:34:37;;;;;;;28.35;16.17;;;;;;;2.04;45.35;100312.84;1705838;83;26655;-64
2021/03/11 08:37:22;;;;;;;23.50;15.05;;;;;;;1.96;44.95;100322.13;1682087;85;25525;-64
2021/03/11 08:39:49;;;;;;;21.80;13.85;;;;;;;1.85;43.76;100330.52;1715946;83;25564;-62
2021/03/11 08:42:48;;;;;;;23.87;15.30;;;;;;;1.74;43.85;100347.48;1714327;83;25703;-62
2021/03/11 08:45:38;;;;;;;27.80;15.98;;;;;;;1.61;44.10;100327.31;1714621;83;25449;-64
2021/03/11 08:48:20;;;;;;;25.40;16.12;;;;;;;1.51;44.31;100325.06;1714542;83;25771;-64
2021/03/11 08:50:53;;;;;;;25.48;15.88;;;;;;;1.38;44.74;100304.39;1705998;83;25484;-63
2021/03/11 08:53:44;;;;;;;22.82;15.60;;;;;;;1.30;44.16;100293.61;1711472;83;25368;-63
2021/03/11 08:56:22;;;;;;;23.10;14.68;;;;;;;1.25;43.63;100296.75;1716606;83;25380;-65
2021/03/11 08:59:03;;;;;;;24.00;14.95;;;;;;;1.22;44.09;100283.91;1713774;83;25521;-63
2021/03/11 09:01:51;;;;;;;23.22;14.13;;;;;;;1.23;44.35;100278.88;1717692;82;26181;-63
2021/03/11 09:04:35;;;;;;;29.25;15.15;;;;;;;1.22;44.70;100279.38;1741540;82;25456;-63
2021/03/11 09:07:11;;;;;;;23.02;15.38;;;;;;;1.28;44.04;100274.41;1743018;82;25625;-62
2021/03/11 09:09:50;;;;;;;25.90;15.15;;;;;;;1.28;43.72;100273.08;1743671;82;25330;-62
2021/03/11 09:12:25;;;;;;;26.17;14.60;;;;;;;1.25;44.25;100290.09;1722652;82;25535;-64
2021/03/11 09:14:55;;;;;;;21.07;13.62;;;;;;;1.25;44.06;100258.11;1716281;82;25953;-62
2021/03/11 09:17:26;;;;;;;22.67;14.47;;;;;;;1.20;43.21;100239.39;1714915;81;25633;-63
2021/03/11 09:20:02;;;;;;;25.20;16.55;;;;;;;1.18;43.72;100266.82;1710343;83;25473;-62
2021/03/11 09:22:37;;;;;;;25.65;16.10;;;;;;;1.17;44.49;100239.88;1709210;84;25748;-62
2021/03/11 09:25:15;;;;;;;29.95;14.73;;;;;;;1.17;45.34;100246.55;1708280;83;25662;-66
2021/03/11 09:27:54;;;;;;;27.35;15.75;;;;;;;1.19;45.62;100229.27;1711868;82;25717;-63
2021/03/11 09:30:30;;;;;;;23.12;16.10;;;;;;;1.24;45.58;100220.01;1742286;82;34780;-60
2021/03/11 09:33:08;;;;;;;26.60;16.32;;;;;;;1.19;45.26;100219.12;1742282;82;25566;-61
2021/03/11 09:35:35;;;;;;;25.57;16.30;;;;;;;1.08;45.46;100202.22;1741994;82;26288;-63
2021/03/11 09:38:06;;;;;;;25.60;16.48;;;;;;;1.03;45.93;100210.94;1735154;82;25669;-62
2021/03/11 09:40:43;;;;;;;26.80;16.27;;;;;;;1.03;46.43;100207.48;1710677;83;26166;-63
2021/03/11 09:43:35;;;;;;;29.87;16.50;;;;;;;1.06;46.56;100203.79;1708926;84;25764;-63
2021/03/11 09:46:17;;;;;;;27.40;16.20;;;;;;;1.08;46.24;100199.55;1715087;82;25598;-63
2021/03/11 09:48:53;;;;;;;27.17;16.55;;;;;;;1.09;46.68;100195.31;1741894;82;26275;-65
2021/03/11 09:51:27;;;;;;;26.35;15.32;;;;;;;1.17;47.09;100188.72;1727698;81;25601;-65
2021/03/11 09:54:06;;;;;;;23.70;15.20;;;;;;;1.31;46.91;100187.81;1726281;82;26007;-63
2021/03/11 09:56:43;;;;;;;24.32;15.23;;;;;;;1.36;46.64;100195.06;1741737;82;25606;-61
2021/03/11 09:59:14;;;;;;;25.52;15.60;;;;;;;1.34;46.56;100193.98;1731811;81;25471;-64
2021/03/11 10:01:48;;;;;;;30.70;15.83;;;;;;;1.39;46.45;100174.05;1718844;82;25276;-63
2021/03/11 10:04:27;;;;;;;27.82;16.50;;;;;;;1.48;46.83;100163.23;1708057;84;25616;-64
2021/03/11 10:07:02;;;;;;;28.52;16.42;;;;;;;1.63;46.68;100162.55;1708337;84;25725;-63
2021/03/11 10:09:45;;;;;;;26.65;16.37;;;;;;;1.70;45.90;100162.88;1708535;81;25733;-64
2021/03/11 10:12:13;;;;;;;27.07;16.17;;;;;;;1.71;45.80;100163.97;1706969;84;25279;-64
2021/03/11 10:14:42;;;;;;;29.20;16.42;;;;;;;1.80;45.89;100138.43;1708134;84;25544;-63
2021/03/11 10:17:18;;;;;;;24.43;14.93;;;;;;;1.90;46.03;100144.39;1708463;81;25542;-63
2021/03/11 10:19:44;;;;;;;26.73;16.70;;;;;;;2.05;45.38;100122.36;1707990;84;25742;-64
2021/03/11 10:22:19;;;;;;;26.30;15.43;;;;;;;2.31;45.13;100129.20;1708299;84;25889;-62
2021/03/11 10:24:50;;;;;;;26.48;16.70;;;;;;;2.45;45.01;100105.52;1686283;84;25766;-63
2021/03/11 10:27:25;;;;;;;28.32;15.93;;;;;;;2.55;45.38;100088.20;1708182;84;25630;-63
2021/03/11 10:30:12;;;;;;;25.52;16.12;;;;;;;2.73;45.18;100087.75;1708448;84;25580;-63
2021/03/11 10:32:43;;;;;;;26.65;16.93;;;;;;;2.92;44.43;100089.95;1708381;84;25998;-64
2021/03/11 10:35:12;;;;;;;25.37;15.80;;;;;;;3.01;43.81;100083.02;1707042;83;25283;-63
2021/03/11 10:37:40;;;;;;;;;;;;;;;3.09;43.01;100081.72;1682989;85;25346;-64
2021/03/11 10:40:11;;;;;;;26.17;15.58;;;;;;;3.22;43.41;100079.05;1681276;85;25742;-63
2021/03/11 10:42:44;;;;;;;22.27;14.90;;;;;;;3.45;42.96;100067.06;1673290;85;25591;-64
2021/03/11 10:45:25;;;;;;;22.58;15.15;;;;;;;3.54;42.20;100064.94;1651039;85;26654;-63
2021/03/11 10:48:04;;;;;;;22.37;14.68;;;;;;;3.73;43.36;100051.02;1712275;83;25679;-64
2021/03/11 10:50:40;;;;;;;22.60;13.75;;;;;;;3.88;42.56;100043.49;1712702;83;25519;-63
2021/03/11 10:53:18;;;;;;;23.57;15.10;;;;;;;4.05;42.35;100036.50;1888645;76;34508;-62
2021/03/11 10:55:47;;;;;;;21.35;13.35;;;;;;;3.86;41.95;100029.59;1859497;77;25511;-64
2021/03/11 10:58:25;;;;;;;22.25;14.40;;;;;;;3.77;41.88;100033.89;1859670;77;32270;-64
2021/03/11 11:01:13;;;;;;;23.35;14.25;;;;;;;3.64;42.07;100022.65;1859560;77;25468;-62
2021/03/11 11:03:41;;;;;;;19.55;12.60;;;;;;;3.58;42.11;100022.41;1859383;77;25542;-63
2021/03/11 11:06:09;;;;;;;22.60;14.38;;;;;;;3.49;41.42;100011.97;1859435;77;25456;-65
2021/03/11 11:08:37;;;;;;;18.90;13.43;;;;;;;3.51;42.14;100011.19;1859513;76;25424;-64
2021/03/11 11:11:04;;;;;;;24.90;15.37;;;;;;;3.57;42.76;99998.05;1859599;77;25684;-64
2021/03/11 11:13:31;;;;;;;25.08;13.45;;;;;;;3.58;42.40;99990.86;1859317;77;25547;-63
2021/03/11 11:15:58;;;;;;;18.75;12.80;;;;;;;3.57;42.16;99995.38;1859460;77;25503;-63
2021/03/11 11:18:25;;;;;;;18.55;12.75;;;;;;;3.46;42.62;99977.77;1859236;77;25319;-63
2021/03/11 11:20:51;;;;;;;19.92;13.32;;;;;;;3.39;41.95;99965.18;1859451;77;25540;-61
2021/03/11 11:23:18;;;;;;;20.12;12.65;;;;;;;3.22;41.93;99976.97;1859503;77;26582;-63
2021/03/11 11:25:45;;;;;;;23.35;13.13;;;;;;;3.11;42.64;99989.50;1859301;77;25623;-62
2021/03/11 11:28:11;;;;;;;19.32;12.75;;;;;;;3.03;43.04;99970.53;1856137;76;25266;-63
2021/03/11 11:30:41;;;;;;;19.80;12.30;;;;;;;2.95;43.59;99947.83;1857132;77;25279;-64
2021/03/11 11:33:09;;;;;;;19.45;12.82;;;;;;;2.93;43.26;99932.06;1849987;77;25579;-63
2021/03/11 11:35:36;;;;;;;22.30;13.60;;;;;;;2.87;43.53;99926.98;1846795;77;25748;-64
2021/03/11 11:38:03;;;;;;;19.62;12.07;;;;;;;2.86;43.89;99924.85;1847243;77;25253;-63
2021/03/11 11:40:31;;;;;;;20.37;12.25;;;;;;;2.88;44.35;99915.20;1857790;77;25551;-63
2021/03/11 11:42:59;;;;;;;21.90;12.90;;;;;;;2.91;44.20;99908.00;1858942;77;25296;-63
2021/03/11 11:45:26;;;;;;;20.90;12.20;;;;;;;2.88;44.36;99894.66;1857572;77;25519;-63
2021/03/11 11:47:53;;;;;;;22.17;13.43;;;;;;;2.88;44.17;99893.33;1857096;77;26615;-63
2021/03/11 11:50:20;;;;;;;24.12;13.90;;;;;;;2.81;44.30;99903.48;1857112;77;25485;-64
2021/03/11 11:52:47;;;;;;;23.62;13.40;;;;;;;2.69;44.62;99882.88;1857069;77;25171;-64
2021/03/11 11:55:13;;;;;;;22.98;13.15;;;;;;;2.63;45.00;99874.62;1826875;77;25667;-64
2021/03/11 11:57:41;;;;;;;24.25;13.68;;;;;;;2.61;45.09;99885.56;1789575;80;25500;-62
2021/03/11 12:00:15;;;;;;;20.92;13.03;;;;;;;2.61;45.52;99884.23;1786670;78;26887;-55
2021/03/11 12:02:42;;;;;;;25.32;13.00;;;;;;;2.60;45.41;99878.61;1796789;79;25454;-55
2021/03/11 12:05:10;;;;;;;22.75;13.78;;;;;;;2.60;45.27;99876.73;1800183;79;25593;-54
2021/03/11 12:07:37;;;;;;;28.62;14.63;;;;;;;2.55;45.17;99864.71;1801275;79;25537;-54
2021/03/11 12:10:07;;;;;;;22.65;12.78;;;;;;;2.51;45.29;99852.97;1801059;79;25498;-56
2021/03/11 12:12:34;;;;;;;24.02;14.28;;;;;;;2.53;45.28;99844.70;1795317;78;25719;-56
2021/03/11 12:15:00;;;;;;;24.82;14.33;;;;;;;2.49;45.11;99834.30;1789074;79;25627;-55
2021/03/11 12:17:27;;;;;;;25.25;14.78;;;;;;;2.47;45.41;99819.88;1788120;79;25747;-56
2021/03/11 12:19:53;;;;;;;24.98;14.75;;;;;;;2.46;45.63;99812.92;1771657;81;25561;-55
2021/03/11 12:22:20;;;;;;;22.73;13.75;;;;;;;2.49;45.81;99792.91;1786779;80;25649;-55
2021/03/11 12:24:46;;;;;;;26.68;15.72;;;;;;;2.52;45.49;99785.17;1794679;79;25737;-53
2021/03/11 12:27:13;;;;;;;28.67;15.65;;;;;;;2.48;45.74;99776.08;1771792;80;25614;-53
2021/03/11 12:29:39;;;;;;;27.95;14.35;;;;;;;2.48;45.54;99768.06;1788667;79;25544;-53
2021/03/11 12:32:07;;;;;;;25.70;14.58;;;;;;;2.40;45.64;99773.42;1773046;80;25554;-54
2021/03/11 12:34:34;;;;;;;33.13;16.27;;;;;;;2.32;45.65;99755.27;1758912;80;25598;-56
2021/03/11 12:37:00;;;;;;;31.90;16.25;;;;;;;2.27;45.63;99725.13;1795238;78;25762;-55
2021/03/11 12:39:27;;;;;;;28.32;14.30;;;;;;;2.20;45.60;99732.84;1800573;79;25888;-56
2021/03/11 12:41:53;;;;;;;28.80;15.40;;;;;;;2.12;45.91;99715.23;1800878;79;25600;-52
2021/03/11 12:44:20;;;;;;;30.92;15.95;;;;;;;2.10;46.05;99722.17;1800747;79;25590;-55
2021/03/11 12:46:46;;;;;;;24.10;14.35;;;;;;;2.08;46.40;99709.64;1791397;79;25656;-56
2021/03/11 12:49:13;;;;;;;25.45;15.03;;;;;;;2.08;46.53;99692.80;1780243;79;26134;-52
2021/03/11 12:51:39;;;;;;;30.90;16.20;;;;;;;2.07;46.61;99686.68;1769704;81;25707;-53
2021/03/11 12:54:06;;;;;;;28.75;16.02;;;;;;;2.06;46.68;99686.44;1769850;81;25535;-55
2021/03/11 12:56:32;;;;;;;30.37;17.25;;;;;;;2.01;46.39;99675.22;1769820;81;25505;-54
2021/03/11 12:58:58;;;;;;;31.77;17.45;;;;;;;1.96;46.46;99684.55;1769936;81;25492;-56
2021/03/11 13:01:25;;;;;;;33.10;17.42;;;;;;;1.95;46.59;99656.81;1769896;81;26828;-55
2021/03/11 13:03:52;;;;;;;32.65;17.10;;;;;;;1.93;46.97;99646.95;1769840;81;25584;-56
2021/03/11 13:06:18;;;;;;;35.95;17.57;;;;;;;1.94;47.12;99641.35;1770029;81;25562;-50
2021/03/11 13:08:44;;;;;;;35.63;18.12;;;;;;;1.95;47.20;99652.81;1769850;81;25468;-53
2021/03/11 13:11:12;;;;;;;33.30;17.87;;;;;;;1.93;47.40;99642.41;1770020;81;25281;-53
2021/03/11 13:13:40;;;;;;;31.60;17.55;;;;;;;1.97;47.57;99657.34;1769830;81;26676;-52
2021/03/11 13:16:07;;;;;;;33.53;16.85;;;;;;;1.98;47.67;99653.62;1769635;81;25545;-53
2021/03/11 13:18:34;;;;;;;32.70;18.15;;;;;;;1.99;47.77;99653.86;1769905;81;25561;-52
2021/03/11 13:21:02;;;;;;;30.05;17.60;;;;;;;1.99;48.00;99656.02;1769897;81;25571;-53
2021/03/11 13:23:28;;;;;;;29.23;16.42;;;;;;;1.99;48.15;99646.68;1769791;81;25533;-53
2021/03/11 13:25:55;;;;;;;32.80;18.30;;;;;;;2.02;48.34;99648.00;1769878;81;25769;-56
2021/03/11 13:28:21;;;;;;;35.40;18.25;;;;;;;2.08;48.46;99644.78;1769874;81;25597;-52
2021/03/11 13:30:50;;;;;;;30.17;18.10;;;;;;;2.11;48.37;99638.41;1769721;81;25484;-51
2021/03/11 13:33:18;;;;;;;35.80;19.32;;;;;;;2.12;48.29;99627.98;1770000;81;29896;-55
2021/03/11 13:35:48;;;;;;;36.48;17.90;;;;;;;2.13;48.17;99612.25;1769934;81;25436;-54
2021/03/11 13:38:14;;;;;;;32.63;16.30;;;;;;;2.12;48.14;99613.31;1769748;81;25806;-54
2021/03/11 13:40:41;;;;;;;31.07;18.48;;;;;;;2.13;48.20;99614.92;1769809;81;25198;-57
2021/03/11 13:43:07;;;;;;;35.33;18.42;;;;;;;2.16;48.26;99611.72;1770006;81;25477;-55
2021/03/11 13:45:35;;;;;;;33.67;16.67;;;;;;;2.18;48.39;99622.91;1769660;81;26430;-54
2021/03/11 13:48:02;;;;;;;35.08;18.17;;;;;;;2.18;48.30;99608.24;1769841;81;25248;-56
2021/03/11 13:50:28;;;;;;;34.65;18.05;;;;;;;2.19;48.25;99606.36;1769640;81;25710;-54
2021/03/11 13:52:55;;;;;;;51.55;19.70;;;;;;;2.18;48.25;99615.42;1756523;81;25759;-56
2021/03/11 13:55:23;;;;;;;40.88;19.85;;;;;;;2.16;48.19;99594.89;1741864;82;25565;-53
2021/03/11 13:57:50;;;;;;;37.15;19.30;;;;;;;2.16;48.38;99594.38;1741869;82;25536;-58
2021/03/11 14:00:18;;;;;;;33.25;19.48;;;;;;;2.19;48.41;99581.02;1741740;82;25554;-52
2021/03/11 14:02:44;;;;;;;36.05;18.48;;;;;;;2.20;48.49;99594.09;1741934;82;25688;-53
2021/03/11 14:05:13;;;;;;;32.48;18.45;;;;;;;2.21;48.17;99580.20;1741956;82;25441;-55
2021/03/11 14:07:42;;;;;;;34.20;17.92;;;;;;;2.21;48.23;99573.02;1742147;82;34764;-56
2021/03/11 14:10:10;;;;;;;36.10;18.75;;;;;;;2.19;48.09;99565.80;1728000;83;25569;-54
2021/03/11 14:12:37;;;;;;;38.10;18.25;;;;;;;2.21;48.25;99557.52;1728014;83;25608;-54
2021/03/11 14:15:06;;;;;;;32.85;18.20;;;;;;;2.20;48.38;99548.72;1727776;83;25909;-56
2021/03/11 14:17:35;;;;;;;30.17;17.65;;;;;;;2.23;48.45;99530.02;1728209;83;25527;-55
2021/03/11 14:20:03;;;;;;;34.08;18.42;;;;;;;2.26;48.62;99514.02;1728064;83;25459;-53
2021/03/11 14:22:30;;;;;;;38.70;18.80;;;;;;;2.26;48.53;99516.14;1728038;83;25150;-55
2021/03/11 14:24:56;;;;;;;37.50;20.32;;;;;;;2.29;48.70;99504.92;1728096;83;25166;-53
2021/03/11 14:27:26;;;;;;;38.17;18.90;;;;;;;2.31;48.08;99524.67;1727772;81;26220;-55
2021/03/11 14:29:55;;;;;;;36.77;19.82;;;;;;;2.29;47.76;99511.60;1739370;80;26368;-55
2021/03/11 14:32:23;;;;;;;35.40;17.45;;;;;;;2.30;47.89;99507.05;1767139;80;25522;-55
2021/03/11 14:34:50;;;;;;;38.30;20.43;;;;;;;2.29;48.11;99498.25;1768721;81;25475;-54
2021/03/11 14:37:17;;;;;;;39.73;20.90;;;;;;;2.32;47.89;99496.92;1768376;81;25557;-54
2021/03/11 14:39:44;;;;;;;36.30;19.32;;;;;;;2.32;48.17;99500.38;1768572;81;26395;-56
2021/03/11 14:42:11;;;;;;;33.20;18.37;;;;;;;2.32;48.16;99491.59;1768612;81;25135;-56
2021/03/11 14:44:39;;;;;;;35.28;18.20;;;;;;;2.31;48.06;99475.30;1765260;80;25527;-56
2021/03/11 14:47:06;;;;;;;33.95;19.65;;;;;;;2.29;48.01;99476.12;1734058;82;25544;-57
2021/03/11 14:49:33;;;;;;;32.53;18.90;;;;;;;2.30;47.85;99460.34;1733959;82;25451;-55
2021/03/11 14:52:00;;;;;;;35.13;19.20;;;;;;;2.30;47.92;99480.36;1734136;82;25787;-58
2021/03/11 14:54:26;;;;;;;35.63;18.55;;;;;;;2.28;47.85;99461.95;1755556;80;25969;-54
2021/03/11 14:56:55;;;;;;;31.95;17.37;;;;;;;2.28;47.89;99471.30;1761373;80;25614;-57
2021/03/11 14:59:22;;;;;;;34.18;18.37;;;;;;;2.26;47.87;99446.76;1756848;81;25559;-58
2021/03/11 15:01:49;;;;;;;33.53;18.42;;;;;;;2.26;47.89;99449.42;1755977;81;25277;-55
2021/03/11 15:04:15;;;;;;;32.63;17.87;;;;;;;2.24;48.04;99429.69;1756377;81;28086;-55
2021/03/11 15:06:44;;;;;;;35.68;20.05;;;;;;;2.23;48.18;99462.80;1756504;81;25545;-53
2021/03/11 15:09:11;;;;;;;39.92;19.45;;;;;;;2.22;48.47;99423.83;1756800;81;25470;-54
2021/03/11 15:11:39;;;;;;;40.65;22.07;;;;;;;2.18;48.86;99417.45;1761454;80;25654;-51
2021/03/11 15:14:07;;;;;;;41.77;19.30;;;;;;;2.16;49.02;99422.28;1756873;81;25587;-54
2021/03/11 15:16:33;;;;;;;35.55;19.05;;;;;;;2.13;49.39;99410.81;1756668;81;25754;-55
2021/03/11 15:19:02;;;;;;;37.15;21.35;;;;;;;2.09;50.28;99389.73;1756808;81;25664;-56
2021/03/11 15:21:29;;;;;;;37.90;20.77;;;;;;;2.01;51.42;99385.79;1756704;81;25571;-57
2021/03/11 15:23:57;;;;;;;36.70;20.30;;;;;;;1.90;52.31;99380.23;1756103;81;25524;-56
2021/03/11 15:26:23;;;;;;;38.48;20.48;;;;;;;1.81;52.92;99380.55;1756500;81;25527;-55
2021/03/11 15:28:50;;;;;;;38.10;20.17;;;;;;;1.72;54.54;99378.16;1756275;81;26659;-59
2021/03/11 15:31:16;;;;;;;40.78;21.25;;;;;;;1.63;54.82;99381.93;1756124;81;25599;-57
2021/03/11 15:33:46;;;;;;;41.73;21.68;;;;;;;1.55;54.91;99378.48;1756342;81;25549;-56
2021/03/11 15:36:12;;;;;;;38.00;20.97;;;;;;;1.48;55.44;99384.91;1756219;81;25515;-56
2021/03/11 15:38:38;;;;;;;47.58;21.42;;;;;;;1.45;55.42;99392.11;1756874;81;25531;-55
2021/03/11 15:41:05;;;;;;;39.10;20.70;;;;;;;1.44;54.89;99383.05;1757071;81;25909;-55
2021/03/11 15:43:32;;;;;;;41.73;21.27;;;;;;;1.43;55.14;99382.27;1756944;81;25615;-52
2021/03/11 15:46:02;;;;;;;39.13;21.00;;;;;;;1.44;54.76;99368.40;1756915;81;25532;-53
2021/03/11 15:48:31;;;;;;;37.75;21.12;;;;;;;1.46;54.70;99381.73;1791666;78;26006;-55
2021/03/11 15:51:01;;;;;;;38.90;21.23;;;;;;;1.43;55.78;99366.79;1785178;78;25566;-55
2021/03/11 15:53:30;;;;;;;36.68;19.82;;;;;;;1.35;58.35;99402.80;1790919;78;25771;-57
2021/03/11 15:55:58;;;;;;;39.53;21.45;;;;;;;1.26;59.69;99395.06;1796009;79;25724;-54
2021/03/11 15:58:25;;;;;;;35.78;19.20;;;;;;;1.17;60.57;99367.39;1796398;79;25593;-57
2021/03/11 16:00:53;;;;;;;38.42;20.17;;;;;;;1.11;61.55;99382.59;1796333;79;25617;-57
2021/03/11 16:03:20;;;;;;;35.28;17.90;;;;;;;1.05;61.38;99349.81;1796493;79;25579;-57
2021/03/11 16:05:47;;;;;;;37.10;21.10;;;;;;;1.03;60.36;99355.95;1796513;79;25743;-56
2021/03/11 16:08:15;;;;;;;43.65;21.35;;;;;;;0.99;61.16;99363.41;1796227;79;25589;-54
2021/03/11 16:10:44;;;;;;;34.78;19.90;;;;;;;0.94;62.22;99341.59;1796545;79;25701;-55
2021/03/11 16:13:13;;;;;;;37.10;19.77;;;;;;;0.89;62.46;99349.05;1796624;79;25607;-55
2021/03/11 16:15:41;;;;;;;39.53;20.40;;;;;;;0.84;61.96;99331.74;1796614;79;25261;-56
2021/03/11 16:18:09;;;;;;;36.80;20.95;;;;;;;0.80;62.95;99335.20;1796361;79;25862;-56
2021/03/11 16:20:37;;;;;;;39.10;20.70;;;;;;;0.72;65.13;99341.33;1800727;78;25598;-55
2021/03/11 16:23:04;;;;;;;42.17;19.42;;;;;;;0.62;65.71;99339.22;1818178;78;25434;-55
2021/03/11 16:25:31;;;;;;;35.38;19.12;;;;;;;0.51;67.01;99345.05;1810510;79;25576;-55
2021/03/11 16:27:57;;;;;;;40.08;21.57;;;;;;;0.41;67.68;99323.24;1814910;79;25629;-55
2021/03/11 16:30:24;;;;;;;36.50;20.00;;;;;;;0.30;68.64;99345.56;1814615;79;25800;-56
2021/03/11 16:32:51;;;;;;;39.67;20.30;;;;;;;0.21;69.92;99313.38;1803620;78;25236;-55
2021/03/11 16:35:18;;;;;;;37.95;20.82;;;;;;;0.11;69.60;99293.41;1814501;79;25613;-56
2021/03/11 16:37:46;;;;;;;40.48;20.12;;;;;;;0.05;70.57;99301.09;1814465;79;25436;-55
2021/03/11 16:40:15;;;;;;;36.77;19.87;;;;;;;-0.03;71.91;99286.48;1815455;79;25340;-52
2021/03/11 16:42:48;;;;;;;41.33;22.60;;;;;;;-0.07;72.12;99294.19;1815470;79;25757;-54
2021/03/11 16:45:19;;;;;;;39.25;20.57;;;;;;;-0.11;73.27;99278.47;1815026;79;25423;-55